Strona główna
METAR-TAF:

METAR-TAF

Lotnisko :

Penn Valley Airport

Selinsgrove, Pensylwania, Stany Zjednoczone

Szerokość geograficzna: 40-49-09N, Długość geograficzna: 076-51-58W, wysokość: 137 m

Aktualna obserwacja pogody

Raport powstał 12 minut temu, godzina 19:33 UTC
Wiatr 3 kt z kierunków zmiennych
Temperatura 17°C
Wilgotność 82%
Ciśnienie 1013 hPa
Widzialność: 16.1 km
Przerywane chmury na wysokości 1500 ft
Przerywane chmury na wysokości 4000 ft
Zachmurzenie całkowite na wysokości 5000 ft

METAR: KSEG 151933Z AUTO VRB03KT 10SM BKN015 BKN040 OVC050 17/14 A2991 RMK AO2 T01670139

czas: 15:45 (19:45 UTC)


TAF: brakujący

Obserwacja i prognoza pogody dla ponad 4000 lotnisk (raport METAR i TAF).

Dostępne stacje oznaczono żółtymi i czerwonymi punktami na mapie.

Najedź kursorem aby zobaczyć nazwę stacji.

Kliknij aby zobaczyć obserwacje i prognozy pogody.

Aby zmienić mapę: kliknij na zielony przycisk z czarnym krzyżykiem, aby powiększyć; na zielony przycisk z myślnikiem, aby pomniejszyć; na zielone strzałki, aby przejść do map sąsiednich.


METAR-TAF: